• Join FlightAware (Why Join?)
  • Login
  • US Flag 
07:38PM EDT


 

Airport Tracker/Info


-or-


 

Live Flight TrackerFlight Track Log ✈ RLK310 ✈ 22-Jun-2013 ✈ NZWN / WLG - NZHN / HLZ

Flight Track Log - Related Links

Times and Time Zones

All times are in EDT time to prevent confusion due to time zone crossing. See the RLK310 flight status page for this flight to view local times or setup timezone preferences in your user account.

Time Position Orientation Groundspeed Altitude Reporting Facility
EDT Latitude Longitude Course Direction KTS MPH feet Rate Location/Type
11:14PM -41.3333 174.8000 North 86 99  Level New Zealand
11:15PM -41.2686 174.8147 North  Level Estimated
11:15PM -41.3667 174.8000 180° South 123 142  Level New Zealand
11:16PM -41.4000 174.8167 159° South 149 171  Level New Zealand
11:17PM -41.4333 174.8667 132° Southeast 161 185  Level New Zealand
11:18PM -41.4000 174.9000 37° Northeast 196 226  Level New Zealand
11:19PM -41.3333 174.9167 11° North 204 235  Level New Zealand
11:20PM -41.2667 174.9167 360° North 203 234  Level New Zealand
11:21PM -41.2167 174.9333 14° North 203 234  Level New Zealand
11:22PM -41.1500 174.9333 360° North 198 228  Level New Zealand
11:23PM -41.1000 174.9500 14° North 197 227  Level New Zealand
11:24PM -41.0333 174.9500 360° North 195 224  Level New Zealand
11:25PM -40.9833 174.9500 360° North 206 237  Level New Zealand
11:26PM -40.9167 174.9667 11° North 211 243  Level New Zealand
11:27PM -40.8500 174.9667 360° North 211 243  Level New Zealand
11:28PM -40.8000 174.9833 14° North 216 249  Level New Zealand
11:29PM -40.7333 174.9833 360° North 244 281  Level New Zealand
11:30PM -40.6500 175.0000 North 261 300  Level New Zealand
11:31PM -40.5833 175.0000 360° North 259 298  Level New Zealand
11:33PM -40.5000 175.0000 360° North 259 298  Level New Zealand
11:34PM -40.4333 175.0000 360° North 257 296  Level New Zealand
11:35PM -40.3500 175.0000 360° North 256 295  Level New Zealand
11:36PM -40.2833 175.0000 360° North 256 295  Level New Zealand
11:37PM -40.2167 174.9833 349° North 255 293  Level New Zealand
11:38PM -40.1333 174.9833 360° North 255 293  Level New Zealand
11:39PM -40.0667 174.9833 360° North 253 291  Level New Zealand
11:40PM -40.0000 174.9833 360° North 254 292  Level New Zealand
11:41PM -39.9167 174.9833 360° North 255 293  Level New Zealand
11:42PM -39.8500 174.9833 360° North 257 296  Level New Zealand
11:43PM -39.7833 174.9833 360° North 258 297  Level New Zealand
11:44PM -39.7000 174.9833 360° North 259 298  Level New Zealand
11:45PM -39.6333 174.9833 360° North 259 298  Level New Zealand
11:46PM -39.5500 174.9833 360° North 259 298  Level New Zealand
11:47PM -39.4833 174.9833 360° North 263 303  Level New Zealand
11:48PM -39.4000 174.9833 360° North 265 305  Level New Zealand
11:49PM -39.3333 174.9833 360° North 267 307  Level New Zealand
11:50PM -39.2500 174.9833 360° North 267 307  Level New Zealand
11:51PM -39.1833 175.0000 11° North 273 314  Level New Zealand
11:52PM -39.1000 175.0167 North 275 316  Level New Zealand
11:53PM -39.0333 175.0333 11° North 277 319  Level New Zealand
11:54PM -38.9500 175.0500 North 278 320  Level New Zealand
11:55PM -38.8667 175.0833 17° North 278 320  Level New Zealand
11:56PM -38.7833 175.1000 North 289 333  Level New Zealand
11:57PM -38.7000 175.1167 North 315 362  Level New Zealand
11:58PM -38.6167 175.1500 17° North 318 366  Level New Zealand
11:59PM -38.5333 175.1667 North 311 358  Level New Zealand
12:00AM -38.4333 175.1833 North 301 346  Level New Zealand
12:01AM -38.3667 175.2167 21° North 286 329  Level New Zealand
12:02AM -38.2833 175.2333 North 285 328  Level New Zealand
12:03AM -38.2000 175.2500 North 278 320  Level New Zealand
12:04AM -38.1333 175.2667 11° North 265 305  Level New Zealand
12:05AM -38.0667 175.3000 21° North 243 280  Level New Zealand
12:06AM -38.0000 175.3333 22° Northeast 202 232  Level New Zealand
12:07AM -37.9500 175.3667 28° Northeast 208 239  Level New Zealand
12:08AM -37.9000 175.4000 28° Northeast 218 251  Level New Zealand
12:09AM -37.8500 175.4167 15° North 181 208  Level New Zealand
12:10AM -37.8167 175.3667 310° West 138 159  Level New Zealand
12:11AM -37.8333 175.3500 218° Southwest 102 117  Level New Zealand
12:12AM -37.8667 175.3333 202° Southwest 100 115  Level New Zealand